createdAt,value
2023-03-04T00:01:51.455Z,33.38
2023-03-04T00:04:18.589Z,31.15
2023-03-04T00:06:45.761Z,26.50
2023-03-04T00:09:12.879Z,29.38
2023-03-04T00:11:40.185Z,18.05
2023-03-04T00:14:07.591Z,32.13
2023-03-04T00:16:34.804Z,29.42
2023-03-04T00:19:01.723Z,33.40
2023-03-04T00:21:29.321Z,32.67
2023-03-04T00:23:56.513Z,36.22
2023-03-04T00:26:23.895Z,37.25
2023-03-04T00:28:51.008Z,33.95
2023-03-04T00:31:18.288Z,41.15
2023-03-04T00:33:45.325Z,38.55
2023-03-04T00:36:12.750Z,39.35
2023-03-04T00:38:39.667Z,37.70
2023-03-04T00:41:07.371Z,35.22
2023-03-04T00:43:34.706Z,39.13
2023-03-04T00:46:02.148Z,31.98
2023-03-04T00:48:30.261Z,43.35
2023-03-04T00:50:57.416Z,36.92
2023-03-04T00:53:24.701Z,41.22
2023-03-04T00:55:51.885Z,42.10
2023-03-04T00:58:19.210Z,41.80
2023-03-04T01:00:46.470Z,39.30
2023-03-04T01:03:13.586Z,35.33
2023-03-04T01:05:41.106Z,36.75
2023-03-04T01:08:08.016Z,44.38
2023-03-04T01:10:35.221Z,41.38
2023-03-04T01:13:02.865Z,39.92
2023-03-04T01:15:30.066Z,39.80
2023-03-04T01:17:57.293Z,48.53
2023-03-04T01:20:24.997Z,36.10
2023-03-04T01:22:52.129Z,49.92
2023-03-04T01:25:19.460Z,43.80
2023-03-04T01:27:46.411Z,39.35
2023-03-04T01:30:14.235Z,44.05
2023-03-04T01:32:41.541Z,41.38
2023-03-04T01:35:10.016Z,31.77
2023-03-04T01:37:38.138Z,38.25
2023-03-04T01:40:05.898Z,43.10
2023-03-04T01:42:36.009Z,37.80
2023-03-04T01:45:05.481Z,51.13
2023-03-04T01:47:36.172Z,42.35
2023-03-04T01:50:07.587Z,40.83
2023-03-04T01:52:34.690Z,45.28
2023-03-04T01:55:02.688Z,35.53
2023-03-04T01:57:35.564Z,40.90
2023-03-04T02:00:29.193Z,32.97
2023-03-04T02:03:01.100Z,36.97
2023-03-04T02:05:28.800Z,38.35
2023-03-04T02:07:57.336Z,41.95
2023-03-04T02:10:24.946Z,38.05
2023-03-04T02:12:52.778Z,35.90
2023-03-04T02:15:21.098Z,30.02
2023-03-04T02:17:48.460Z,31.30
2023-03-04T02:20:28.430Z,30.65
2023-03-04T02:23:04.247Z,33.88
2023-03-04T02:25:39.823Z,33.20
2023-03-04T02:28:07.226Z,27.23
2023-03-04T02:30:35.204Z,39.22
2023-03-04T02:33:02.309Z,32.35
2023-03-04T02:35:31.036Z,29.08
2023-03-04T02:37:58.255Z,36.42
2023-03-04T02:40:32.970Z,37.85
2023-03-04T02:43:01.023Z,29.00
2023-03-04T02:45:31.172Z,29.08
2023-03-04T02:47:58.313Z,33.95
2023-03-04T02:50:28.580Z,39.58
2023-03-04T02:52:55.652Z,33.97
2023-03-04T02:55:23.212Z,42.33
2023-03-04T02:57:50.794Z,40.47
2023-03-04T03:00:18.182Z,41.53
2023-03-04T03:02:45.835Z,41.17
2023-03-04T03:05:14.348Z,47.30
2023-03-04T03:07:41.312Z,39.83
2023-03-04T03:10:09.268Z,41.38
2023-03-04T03:12:36.921Z,33.53
2023-03-04T03:15:05.210Z,48.40
2023-03-04T03:17:32.928Z,43.30
2023-03-04T03:20:00.480Z,36.15
2023-03-04T03:22:27.422Z,41.05
2023-03-04T03:24:54.675Z,38.05
2023-03-04T03:27:21.594Z,40.03
2023-03-04T03:29:50.202Z,40.55
2023-03-04T03:32:17.289Z,38.05
2023-03-04T03:34:44.775Z,38.42
2023-03-04T03:37:12.580Z,36.55
2023-03-04T03:39:39.788Z,40.97
2023-03-04T03:42:07.481Z,27.13
2023-03-04T03:44:35.076Z,37.85
2023-03-04T03:47:02.927Z,37.13
2023-03-04T03:49:30.335Z,39.85
2023-03-04T03:51:57.271Z,34.88
2023-03-04T03:54:24.511Z,33.22
2023-03-04T03:56:51.649Z,39.65
2023-03-04T03:59:18.900Z,33.72
2023-03-04T04:01:46.079Z,42.47
2023-03-04T04:04:14.326Z,40.85
2023-03-04T04:06:41.714Z,33.95
2023-03-04T04:09:08.881Z,42.25
2023-03-04T04:11:35.777Z,39.53
2023-03-04T04:14:03.472Z,40.38
2023-03-04T04:16:30.843Z,23.50
2023-03-04T04:18:58.500Z,44.53
2023-03-04T04:21:25.482Z,39.05
2023-03-04T04:23:53.019Z,38.38
2023-03-04T04:26:19.913Z,34.72
2023-03-04T04:28:48.020Z,35.22
2023-03-04T04:31:15.317Z,36.47
2023-03-04T04:33:42.895Z,34.90
2023-03-04T04:36:14.583Z,28.35
2023-03-04T04:38:41.954Z,33.92
2023-03-04T04:41:21.394Z,30.63
2023-03-04T04:43:49.205Z,34.08
2023-03-04T04:46:17.136Z,33.75
2023-03-04T04:48:45.019Z,31.77
2023-03-04T04:51:12.329Z,31.80
2023-03-04T04:53:40.002Z,39.75
2023-03-04T04:56:11.864Z,32.83
2023-03-04T04:58:39.592Z,24.65
2023-03-04T05:01:07.281Z,35.78
2023-03-04T05:03:35.622Z,34.83
2023-03-04T05:06:05.321Z,28.40
2023-03-04T05:08:32.767Z,26.10
2023-03-04T05:11:00.194Z,30.95
2023-03-04T05:13:28.496Z,33.50
2023-03-04T05:15:56.691Z,30.42
2023-03-04T05:18:25.756Z,33.70
2023-03-04T05:20:54.510Z,27.88
2023-03-04T05:23:22.993Z,39.70
2023-03-04T05:25:50.009Z,29.08
2023-03-04T05:28:18.047Z,30.30
2023-03-04T05:30:46.615Z,31.38
2023-03-04T05:33:17.271Z,35.08
2023-03-04T05:35:46.035Z,34.67
2023-03-04T05:38:14.858Z,35.20
2023-03-04T05:40:43.513Z,32.65
2023-03-04T05:43:11.566Z,28.95
2023-03-04T05:45:39.171Z,31.25
2023-03-04T05:48:07.862Z,30.65
2023-03-04T05:50:35.938Z,31.65
2023-03-04T05:53:03.112Z,32.00
2023-03-04T05:55:30.127Z,31.67
2023-03-04T05:57:57.879Z,30.63
2023-03-04T06:00:25.795Z,28.67
2023-03-04T06:02:53.491Z,32.92
2023-03-04T06:05:22.269Z,29.02
2023-03-04T06:07:49.519Z,28.92
2023-03-04T06:10:18.043Z,30.95
2023-03-04T06:12:45.477Z,31.08
2023-03-04T06:15:13.086Z,35.28
2023-03-04T06:17:42.399Z,29.83
2023-03-04T06:20:11.193Z,31.02
2023-03-04T06:22:38.662Z,35.60
2023-03-04T06:25:06.307Z,34.22
2023-03-04T06:27:33.496Z,28.42
2023-03-04T06:30:01.924Z,31.20
2023-03-04T06:32:29.467Z,31.98
2023-03-04T06:34:56.675Z,33.40
2023-03-04T06:37:24.016Z,29.20
2023-03-04T06:39:51.168Z,32.15
2023-03-04T06:42:19.607Z,31.38
2023-03-04T06:44:48.346Z,29.95
2023-03-04T06:47:16.703Z,32.80
2023-03-04T06:49:43.639Z,31.83
2023-03-04T06:52:12.958Z,33.55
2023-03-04T06:54:40.660Z,34.17
2023-03-04T06:57:08.337Z,33.80
2023-03-04T06:59:35.253Z,27.35
2023-03-04T07:02:02.922Z,35.40
2023-03-04T07:04:29.930Z,29.33
2023-03-04T07:06:58.390Z,25.65
2023-03-04T07:09:25.518Z,25.80
2023-03-04T07:11:52.720Z,23.50
2023-03-04T07:14:20.471Z,28.05
2023-03-04T07:16:48.655Z,29.00
2023-03-04T07:19:15.762Z,27.77
2023-03-04T07:21:43.282Z,30.60
2023-03-04T07:24:10.526Z,27.70
2023-03-04T07:26:38.516Z,27.73
2023-03-04T07:29:05.948Z,26.40
2023-03-04T07:31:35.649Z,28.98
2023-03-04T07:34:05.404Z,29.00
2023-03-04T07:36:35.645Z,31.17
2023-03-04T07:39:02.578Z,26.05
2023-03-04T07:41:31.114Z,26.48
2023-03-04T07:43:58.646Z,30.35
2023-03-04T07:46:26.144Z,27.65
2023-03-04T07:48:54.573Z,28.75
2023-03-04T07:51:24.402Z,26.80
2023-03-04T07:53:55.808Z,29.27
2023-03-04T07:58:54.853Z,30.50
2023-03-04T08:01:25.255Z,26.73
2023-03-04T08:03:52.854Z,25.73
2023-03-04T08:06:21.729Z,26.17
2023-03-04T08:08:50.188Z,26.10
2023-03-04T08:11:20.977Z,27.92
2023-03-04T08:13:49.020Z,25.90
2023-03-04T08:16:19.449Z,30.58
2023-03-04T08:18:49.591Z,28.90
2023-03-04T08:21:19.518Z,19.90
2023-03-04T08:23:47.206Z,20.52
2023-03-04T08:26:22.932Z,29.50
2023-03-04T08:28:50.782Z,29.58
2023-03-04T08:31:19.083Z,20.60
2023-03-04T08:33:47.101Z,28.63
2023-03-04T08:36:15.379Z,30.27
2023-03-04T08:38:42.789Z,27.65
2023-03-04T08:41:10.545Z,17.90
2023-03-04T08:43:37.747Z,26.88
2023-03-04T08:46:06.353Z,26.35
2023-03-04T08:48:34.565Z,25.55
2023-03-04T08:51:06.900Z,29.05
2023-03-04T08:53:34.584Z,26.52
2023-03-04T08:56:02.052Z,21.58
2023-03-04T08:58:29.501Z,28.95
2023-03-04T09:01:01.552Z,26.70
2023-03-04T09:03:29.468Z,28.38
2023-03-04T09:05:57.042Z,19.25
2023-03-04T09:08:24.777Z,20.85
2023-03-04T09:10:54.399Z,22.83
2023-03-04T09:13:26.453Z,25.77
2023-03-04T09:15:54.760Z,22.98
2023-03-04T09:18:23.625Z,26.58
2023-03-04T09:20:51.344Z,24.92
2023-03-04T09:23:21.211Z,23.10
2023-03-04T09:25:49.881Z,26.33
2023-03-04T09:28:18.545Z,25.65
2023-03-04T09:30:45.826Z,23.08
2023-03-04T09:33:13.828Z,23.38
2023-03-04T09:35:41.428Z,20.42
2023-03-04T09:38:08.666Z,21.40
2023-03-04T09:40:45.655Z,20.23
2023-03-04T09:43:20.813Z,27.90
2023-03-04T09:45:53.290Z,23.35
2023-03-04T09:48:30.045Z,22.60
2023-03-04T09:51:12.806Z,25.15
2023-03-04T09:53:52.060Z,27.33
2023-03-04T09:56:19.973Z,27.63
2023-03-04T09:58:56.701Z,20.80
2023-03-04T10:01:40.350Z,22.15
2023-03-04T10:04:22.560Z,27.00
2023-03-04T10:06:54.611Z,26.52
2023-03-04T10:09:39.902Z,24.00
2023-03-04T10:12:13.513Z,21.27
2023-03-04T10:14:51.228Z,26.80
2023-03-04T10:17:38.215Z,22.67
2023-03-04T10:20:08.159Z,27.08
2023-03-04T10:22:50.286Z,25.77
2023-03-04T10:25:29.723Z,33.53
2023-03-04T10:28:10.876Z,23.45
2023-03-04T10:30:56.360Z,20.88
2023-03-04T10:33:27.664Z,28.65
2023-03-04T10:36:05.702Z,18.33
2023-03-04T10:38:37.172Z,26.02
2023-03-04T10:41:19.906Z,19.73
2023-03-04T10:44:14.468Z,26.10
2023-03-04T10:46:44.660Z,21.20
2023-03-04T10:49:15.138Z,23.25
2023-03-04T10:52:25.523Z,28.00
2023-03-04T10:54:55.862Z,29.77
2023-03-04T10:57:39.879Z,26.80
2023-03-04T11:00:26.617Z,27.88
2023-03-04T11:03:22.170Z,18.35
2023-03-04T11:05:50.085Z,21.60
2023-03-04T11:08:22.268Z,28.00
2023-03-04T11:10:52.452Z,22.50
2023-03-04T11:13:28.515Z,19.92
2023-03-04T11:16:01.039Z,27.50
2023-03-04T11:18:37.622Z,25.70
2023-03-04T11:21:06.925Z,35.72
2023-03-04T11:23:42.409Z,23.77
2023-03-04T11:26:16.683Z,25.42
2023-03-04T11:28:59.739Z,27.42
2023-03-04T11:31:33.985Z,21.75
2023-03-04T11:34:16.678Z,29.65
2023-03-04T11:36:50.585Z,17.92
2023-03-04T11:39:27.232Z,17.92
2023-03-04T11:42:01.606Z,20.48
2023-03-04T11:44:30.887Z,23.83
2023-03-04T11:47:27.352Z,20.55
2023-03-04T11:50:01.044Z,24.95
2023-03-04T11:52:55.827Z,23.38
2023-03-04T11:55:31.493Z,25.08
2023-03-04T11:58:01.616Z,24.88
2023-03-04T12:00:44.032Z,24.52
2023-03-04T12:03:26.442Z,29.92
2023-03-04T12:06:03.325Z,23.40
2023-03-04T12:08:46.864Z,23.50
2023-03-04T12:11:20.492Z,23.25
2023-03-04T12:13:48.258Z,21.58
2023-03-04T12:16:39.610Z,29.55
2023-03-04T12:19:27.454Z,22.85
2023-03-04T12:22:11.629Z,23.63
2023-03-04T12:24:56.738Z,25.17
2023-03-04T12:27:51.870Z,27.48
2023-03-04T12:30:22.304Z,21.67
2023-03-04T12:32:57.345Z,21.60
2023-03-04T12:35:34.310Z,25.85
2023-03-04T12:38:12.825Z,29.08
2023-03-04T12:41:01.258Z,24.13
2023-03-04T12:43:41.738Z,25.40
2023-03-04T12:46:27.240Z,22.00
2023-03-04T12:49:16.930Z,25.08
2023-03-04T12:52:32.273Z,27.70
2023-03-04T12:55:04.023Z,25.13
2023-03-04T12:57:33.347Z,22.67
2023-03-04T13:00:09.288Z,22.25
2023-03-04T13:02:46.413Z,23.05
2023-03-04T13:05:35.804Z,21.77
2023-03-04T13:08:13.450Z,17.15
2023-03-04T13:10:40.550Z,19.23
2023-03-04T13:13:33.682Z,20.67
2023-03-04T13:16:32.942Z,20.58
2023-03-04T13:19:00.740Z,24.27
2023-03-04T13:21:32.193Z,19.05
2023-03-04T13:24:38.266Z,21.40
2023-03-04T13:27:42.979Z,18.48
2023-03-04T13:30:32.084Z,19.55
2023-03-04T13:33:21.694Z,16.50
2023-03-04T13:36:27.741Z,16.77
2023-03-04T13:39:16.908Z,22.00
2023-03-04T13:41:56.976Z,22.60
2023-03-04T13:44:42.510Z,19.05
2023-03-04T13:47:18.859Z,21.33
2023-03-04T13:49:46.104Z,18.52
2023-03-04T13:52:42.742Z,20.25
2023-03-04T13:55:36.489Z,11.77
2023-03-04T13:58:27.134Z,8.57
2023-03-04T14:00:56.164Z,6.68
2023-03-04T14:03:29.214Z,5.97
2023-03-04T14:06:41.441Z,5.57
2023-03-04T14:09:21.098Z,5.70
2023-03-04T14:11:51.754Z,7.53
2023-03-04T14:14:24.337Z,9.75
2023-03-04T14:16:58.732Z,7.00
2023-03-04T14:19:30.498Z,6.60
2023-03-04T14:24:30.793Z,5.03
2023-03-04T14:27:13.433Z,6.25
2023-03-04T14:29:40.818Z,7.60
2023-03-04T14:32:08.192Z,7.00
2023-03-04T14:34:38.061Z,4.40
2023-03-04T14:37:23.052Z,5.53
2023-03-04T14:39:56.211Z,8.77
2023-03-04T14:42:28.352Z,8.85
2023-03-04T14:44:59.793Z,7.63
2023-03-04T14:47:40.151Z,7.70
2023-03-04T14:50:13.902Z,7.10
2023-03-04T14:52:43.659Z,5.10
2023-03-04T14:55:27.384Z,4.35
2023-03-04T14:58:09.671Z,6.55
2023-03-04T15:00:42.794Z,4.97
2023-03-04T15:03:40.476Z,5.32
2023-03-04T15:06:23.263Z,6.88
2023-03-04T15:09:00.839Z,5.25
2023-03-04T15:11:44.855Z,4.68
2023-03-04T15:14:41.166Z,5.35
2023-03-04T15:17:26.576Z,4.38
2023-03-04T15:20:06.045Z,4.47
2023-03-04T15:22:57.905Z,4.60
2023-03-04T15:25:25.156Z,4.28
2023-03-04T15:27:54.207Z,3.15
2023-03-04T15:30:31.295Z,3.22
2023-03-04T15:32:59.882Z,4.55
2023-03-04T15:35:31.097Z,3.58
2023-03-04T15:37:58.965Z,2.67
2023-03-04T15:40:34.018Z,3.42
2023-03-04T15:43:04.109Z,2.08
2023-03-04T15:45:37.074Z,3.50
2023-03-04T15:48:09.137Z,3.22
2023-03-04T15:50:43.176Z,5.35
2023-03-04T15:53:17.608Z,3.08
2023-03-04T15:55:46.617Z,7.18
2023-03-04T15:58:14.818Z,6.28
2023-03-04T16:00:42.310Z,3.28
2023-03-04T16:03:17.392Z,4.55
2023-03-04T16:05:47.209Z,9.18
2023-03-04T16:08:17.388Z,2.85
2023-03-04T16:10:45.171Z,4.38
2023-03-04T16:13:18.585Z,6.30
2023-03-04T16:15:46.382Z,3.75
2023-03-04T16:18:15.540Z,4.10
2023-03-04T16:20:49.614Z,4.03
2023-03-04T16:23:22.206Z,5.80
2023-03-04T16:25:52.562Z,4.43
2023-03-04T16:28:20.060Z,2.97
2023-03-04T16:30:47.134Z,5.65
2023-03-04T16:33:16.224Z,4.00
2023-03-04T16:35:44.378Z,3.38
2023-03-04T16:38:28.749Z,4.45
2023-03-04T16:40:57.818Z,4.78
2023-03-04T16:43:26.062Z,2.80
2023-03-04T16:45:53.056Z,4.07
2023-03-04T16:48:20.438Z,5.68
2023-03-04T16:50:47.991Z,6.80
2023-03-04T16:53:35.745Z,2.08
2023-03-04T16:56:19.738Z,4.28
2023-03-04T16:58:47.687Z,5.25
2023-03-04T17:01:17.222Z,1.73
2023-03-04T17:03:44.719Z,2.40
2023-03-04T17:06:12.377Z,9.30
2023-03-04T17:08:40.104Z,2.75
2023-03-04T17:11:08.109Z,5.68
2023-03-04T17:13:35.292Z,7.95
2023-03-04T17:16:03.540Z,3.00
2023-03-04T17:18:31.221Z,1.50
2023-03-04T17:21:07.008Z,5.07
2023-03-04T17:23:35.101Z,3.30
2023-03-04T17:26:02.867Z,3.42
2023-03-04T17:28:30.825Z,3.25
2023-03-04T17:30:57.837Z,4.60
2023-03-04T17:33:25.122Z,6.50
2023-03-04T17:35:52.077Z,3.72
2023-03-04T17:38:19.331Z,8.68
2023-03-04T17:40:47.016Z,4.07
2023-03-04T17:43:14.218Z,3.30
2023-03-04T17:45:42.316Z,3.50
2023-03-04T17:48:15.074Z,5.70
2023-03-04T17:50:52.083Z,8.35
2023-03-04T17:53:20.125Z,3.35
2023-03-04T17:55:55.405Z,5.07
2023-03-04T17:58:23.971Z,3.40
2023-03-04T18:00:52.913Z,1.58
2023-03-04T18:03:20.513Z,2.83
2023-03-04T18:05:47.873Z,5.20
2023-03-04T18:08:15.113Z,6.93
2023-03-04T18:10:42.300Z,9.13
2023-03-04T18:13:09.712Z,3.38
2023-03-04T18:15:37.181Z,2.53
2023-03-04T18:18:04.413Z,3.90
2023-03-04T18:20:31.730Z,3.35
2023-03-04T18:22:59.814Z,4.85
2023-03-04T18:25:26.758Z,4.82
2023-03-04T18:27:54.027Z,4.05
2023-03-04T18:30:27.126Z,4.63
2023-03-04T18:32:56.956Z,3.15
2023-03-04T18:35:24.502Z,4.95
2023-03-04T18:37:52.019Z,2.25
2023-03-04T18:40:19.574Z,3.13
2023-03-04T18:42:47.036Z,4.55
2023-03-04T18:45:15.657Z,2.67
2023-03-04T18:47:48.750Z,2.72
2023-03-04T18:50:16.398Z,2.80
2023-03-04T18:52:45.027Z,4.00
2023-03-04T18:55:13.130Z,2.15
2023-03-04T18:57:46.265Z,2.63
2023-03-04T19:00:24.073Z,6.15
2023-03-04T19:02:52.296Z,3.60
2023-03-04T19:05:27.520Z,4.22
2023-03-04T19:07:55.244Z,7.65
2023-03-04T19:10:22.422Z,4.88
2023-03-04T19:12:50.007Z,2.55
2023-03-04T19:15:18.373Z,3.20
2023-03-04T19:17:46.158Z,4.72
2023-03-04T19:20:14.585Z,4.03
2023-03-04T19:22:43.167Z,7.70
2023-03-04T19:25:10.213Z,5.10
2023-03-04T19:27:37.811Z,3.22
2023-03-04T19:30:06.724Z,5.38
2023-03-04T19:32:34.155Z,5.68
2023-03-04T19:35:01.441Z,4.63
2023-03-04T19:37:28.825Z,4.68
2023-03-04T19:39:56.128Z,3.17
2023-03-04T19:42:24.171Z,2.70
2023-03-04T19:44:51.812Z,4.35
2023-03-04T19:47:18.837Z,4.00
2023-03-04T19:49:46.344Z,4.07
2023-03-04T19:52:13.208Z,5.38
2023-03-04T19:54:41.032Z,3.38
2023-03-04T19:57:07.957Z,5.93
2023-03-04T19:59:35.229Z,3.40
2023-03-04T20:02:03.144Z,2.97
2023-03-04T20:04:30.631Z,4.07
2023-03-04T20:06:57.638Z,5.60
2023-03-04T20:09:25.315Z,4.18
2023-03-04T20:11:58.774Z,3.50
2023-03-04T20:14:27.917Z,3.65
2023-03-04T20:17:00.702Z,3.70
2023-03-04T20:19:31.580Z,3.83
2023-03-04T20:21:58.701Z,5.07
2023-03-04T20:24:26.495Z,4.82
2023-03-04T20:26:54.273Z,4.20
2023-03-04T20:29:21.509Z,6.35
2023-03-04T20:31:49.831Z,3.92
2023-03-04T20:34:17.342Z,5.07
2023-03-04T20:36:44.880Z,6.07
2023-03-04T20:39:27.529Z,4.95
2023-03-04T20:41:57.659Z,7.15
2023-03-04T20:44:25.293Z,5.50
2023-03-04T20:46:52.919Z,7.30
2023-03-04T20:49:24.305Z,5.25
2023-03-04T20:51:53.615Z,8.02
2023-03-04T20:54:21.005Z,6.10
2023-03-04T20:56:48.865Z,15.30
2023-03-04T20:59:16.580Z,6.53
2023-03-04T21:01:45.484Z,6.57
2023-03-04T21:04:12.745Z,7.20
2023-03-04T21:06:40.838Z,7.35
2023-03-04T21:09:13.001Z,6.45
2023-03-04T21:11:41.174Z,7.03
2023-03-04T21:14:13.590Z,7.30
2023-03-04T21:16:40.992Z,9.13
2023-03-04T21:19:15.461Z,6.63
2023-03-04T21:21:42.872Z,7.32
2023-03-04T21:24:14.245Z,13.15
2023-03-04T21:26:45.172Z,6.95
2023-03-04T21:29:13.905Z,4.78
2023-03-04T21:31:44.058Z,5.97
2023-03-04T21:34:16.678Z,5.55
2023-03-04T21:36:43.819Z,6.28
2023-03-04T21:39:19.654Z,6.55
2023-03-04T21:41:47.390Z,5.90
2023-03-04T21:44:27.709Z,4.63
2023-03-04T21:46:57.174Z,5.22
2023-03-04T21:49:25.896Z,5.65
2023-03-04T21:51:52.979Z,10.27
2023-03-04T21:54:20.697Z,6.13
2023-03-04T21:56:47.655Z,7.75
2023-03-04T21:59:15.253Z,10.38
2023-03-04T22:01:42.516Z,5.82
2023-03-04T22:04:10.009Z,10.57
2023-03-04T22:06:38.337Z,4.40
2023-03-04T22:09:06.889Z,5.85
2023-03-04T22:11:34.564Z,5.53
2023-03-04T22:14:03.119Z,6.53
2023-03-04T22:16:32.781Z,4.03
2023-03-04T22:19:01.310Z,5.70
2023-03-04T22:21:28.202Z,5.93
2023-03-04T22:23:55.539Z,11.98
2023-03-04T22:26:30.107Z,6.85
2023-03-04T22:28:58.026Z,7.50
2023-03-04T22:31:31.519Z,5.25
2023-03-04T22:34:05.591Z,3.42
2023-03-04T22:36:35.906Z,7.20
2023-03-04T22:39:05.437Z,4.47
2023-03-04T22:41:33.325Z,5.22
2023-03-04T22:44:00.917Z,5.78
2023-03-04T22:46:30.948Z,5.70
2023-03-04T22:49:01.259Z,6.47
2023-03-04T22:51:28.948Z,5.53
2023-03-04T22:53:56.684Z,5.25
2023-03-04T22:56:23.830Z,10.07
2023-03-04T22:58:51.534Z,5.32
2023-03-04T23:01:19.782Z,4.45
2023-03-04T23:03:49.135Z,6.40
2023-03-04T23:06:17.815Z,4.50
2023-03-04T23:08:47.504Z,7.90
2023-03-04T23:11:32.373Z,5.65
2023-03-04T23:14:02.322Z,4.97
2023-03-04T23:16:29.559Z,8.48
2023-03-04T23:18:59.323Z,6.47
2023-03-04T23:21:28.279Z,8.43
2023-03-04T23:23:55.890Z,8.52
2023-03-04T23:26:26.782Z,7.82
2023-03-04T23:28:57.027Z,14.65
2023-03-04T23:31:25.605Z,12.40
2023-03-04T23:33:57.290Z,14.10
2023-03-04T23:36:27.099Z,16.80
2023-03-04T23:38:55.381Z,13.40
2023-03-04T23:41:25.226Z,12.90
2023-03-04T23:43:54.680Z,12.77
2023-03-04T23:46:22.295Z,13.20
2023-03-04T23:48:50.040Z,16.40
2023-03-04T23:51:21.147Z,18.50
2023-03-04T23:53:49.159Z,15.68
2023-03-04T23:56:19.600Z,14.55
2023-03-04T23:58:47.728Z,16.98
